createdAt,value
2022-09-21T00:01:22.228Z,6.03
2022-09-21T00:03:57.640Z,5.85
2022-09-21T00:06:27.496Z,6.53
2022-09-21T00:08:55.784Z,6.55
2022-09-21T00:11:27.107Z,5.90
2022-09-21T00:14:00.928Z,6.30
2022-09-21T00:16:29.140Z,6.53
2022-09-21T00:18:56.298Z,6.97
2022-09-21T00:21:23.922Z,7.20
2022-09-21T00:23:51.171Z,7.13
2022-09-21T00:26:22.476Z,7.18
2022-09-21T00:28:54.974Z,7.72
2022-09-21T00:31:22.638Z,7.18
2022-09-21T00:33:51.324Z,7.55
2022-09-21T00:36:21.219Z,8.43
2022-09-21T00:38:59.292Z,7.45
2022-09-21T00:41:27.015Z,7.78
2022-09-21T00:44:18.224Z,7.32
2022-09-21T00:46:46.811Z,7.88
2022-09-21T00:49:14.718Z,7.15
2022-09-21T00:51:42.484Z,6.75
2022-09-21T00:54:18.100Z,7.30
2022-09-21T00:56:45.572Z,7.20
2022-09-21T00:59:15.160Z,7.38
2022-09-21T01:01:42.940Z,6.90
2022-09-21T01:04:12.130Z,7.72
2022-09-21T01:06:40.170Z,8.23
2022-09-21T01:09:08.071Z,7.85
2022-09-21T01:12:01.175Z,7.10
2022-09-21T01:15:02.080Z,8.43
2022-09-21T01:17:29.493Z,7.95
2022-09-21T01:20:18.294Z,8.13
2022-09-21T01:23:03.689Z,8.10
2022-09-21T01:25:32.620Z,7.38
2022-09-21T01:28:07.391Z,7.90
2022-09-21T01:30:36.398Z,8.23
2022-09-21T01:33:34.342Z,9.18
2022-09-21T01:36:08.981Z,8.07
2022-09-21T01:38:50.013Z,8.73
2022-09-21T01:41:21.098Z,8.00
2022-09-21T01:43:53.319Z,7.82
2022-09-21T01:46:22.716Z,8.18
2022-09-21T01:48:56.210Z,7.82
2022-09-21T01:51:27.613Z,8.60
2022-09-21T01:54:02.703Z,8.45
2022-09-21T01:57:02.042Z,7.32
2022-09-21T01:59:51.837Z,7.25
2022-09-21T02:02:32.745Z,7.68
2022-09-21T02:05:04.484Z,8.23
2022-09-21T02:07:33.693Z,8.43
2022-09-21T02:10:02.508Z,8.05
2022-09-21T02:12:32.195Z,8.30
2022-09-21T02:14:59.964Z,8.10
2022-09-21T02:17:51.166Z,8.45
2022-09-21T02:20:28.482Z,8.07
2022-09-21T02:23:22.648Z,8.63
2022-09-21T02:26:14.673Z,8.88
2022-09-21T02:29:01.330Z,8.13
2022-09-21T02:31:37.990Z,8.02
2022-09-21T02:34:15.212Z,8.93
2022-09-21T02:37:19.978Z,7.45
2022-09-21T02:40:04.168Z,8.30
2022-09-21T02:42:35.438Z,8.13
2022-09-21T02:45:07.470Z,9.52
2022-09-21T02:47:42.625Z,8.48
2022-09-21T02:50:22.168Z,9.65
2022-09-21T02:52:49.367Z,9.23
2022-09-21T02:55:17.969Z,8.88
2022-09-21T02:57:48.022Z,9.45
2022-09-21T03:00:17.693Z,8.57
2022-09-21T03:02:46.314Z,9.07
2022-09-21T03:05:14.947Z,8.18
2022-09-21T03:07:41.806Z,8.77
2022-09-21T03:10:09.413Z,9.80
2022-09-21T03:12:37.241Z,9.13
2022-09-21T03:15:05.270Z,9.40
2022-09-21T03:17:32.342Z,8.63
2022-09-21T03:19:59.257Z,9.15
2022-09-21T03:22:26.072Z,8.80
2022-09-21T03:24:57.540Z,9.32
2022-09-21T03:27:24.675Z,8.93
2022-09-21T03:29:51.915Z,8.70
2022-09-21T03:32:18.971Z,9.38
2022-09-21T03:34:45.951Z,9.63
2022-09-21T03:37:12.772Z,9.30
2022-09-21T03:39:39.612Z,10.27
2022-09-21T03:42:06.669Z,10.23
2022-09-21T03:44:33.426Z,9.57
2022-09-21T03:47:00.406Z,9.20
2022-09-21T03:49:27.393Z,9.65
2022-09-21T03:51:56.027Z,9.73
2022-09-21T03:54:22.804Z,9.82
2022-09-21T03:56:49.591Z,9.98
2022-09-21T03:59:16.425Z,10.35
2022-09-21T04:01:43.900Z,11.10
2022-09-21T04:04:10.833Z,10.82
2022-09-21T04:06:37.630Z,10.23
2022-09-21T04:09:04.728Z,11.57
2022-09-21T04:11:32.533Z,10.75
2022-09-21T04:13:59.945Z,9.73
2022-09-21T04:16:28.271Z,9.60
2022-09-21T04:18:55.375Z,8.38
2022-09-21T04:21:22.528Z,9.48
2022-09-21T04:23:49.976Z,9.05
2022-09-21T04:26:34.427Z,8.85
2022-09-21T04:29:01.977Z,7.82
2022-09-21T04:31:29.808Z,8.50
2022-09-21T04:33:58.573Z,8.20
2022-09-21T04:36:34.358Z,7.22
2022-09-21T04:39:05.399Z,7.03
2022-09-21T04:41:32.453Z,7.00
2022-09-21T04:43:59.858Z,6.38
2022-09-21T04:46:26.829Z,6.60
2022-09-21T04:48:53.792Z,7.18
2022-09-21T04:51:20.746Z,6.18
2022-09-21T04:53:47.573Z,7.53
2022-09-21T04:56:15.696Z,7.53
2022-09-21T04:58:43.342Z,7.53
2022-09-21T05:01:11.795Z,7.18
2022-09-21T05:03:38.979Z,8.13
2022-09-21T05:06:06.398Z,8.43
2022-09-21T05:08:51.994Z,8.13
2022-09-21T05:11:19.343Z,8.15
2022-09-21T05:13:46.840Z,8.43
2022-09-21T05:16:14.962Z,8.33
2022-09-21T05:18:42.143Z,8.15
2022-09-21T05:21:11.723Z,7.95
2022-09-21T05:23:39.050Z,7.75
2022-09-21T05:26:06.401Z,8.55
2022-09-21T05:28:39.135Z,7.22
2022-09-21T05:31:19.344Z,7.90
2022-09-21T05:33:54.589Z,7.70
2022-09-21T05:36:34.367Z,6.40
2022-09-21T05:39:01.550Z,7.53
2022-09-21T05:41:28.835Z,7.57
2022-09-21T05:43:56.397Z,7.35
2022-09-21T05:46:42.898Z,6.57
2022-09-21T05:49:23.808Z,6.60
2022-09-21T05:52:18.078Z,6.40
2022-09-21T05:54:44.826Z,6.22
2022-09-21T05:57:18.929Z,6.10
2022-09-21T06:00:14.709Z,5.88
2022-09-21T06:03:17.523Z,6.05
2022-09-21T06:05:45.094Z,6.03
2022-09-21T06:08:12.003Z,6.45
2022-09-21T06:10:39.003Z,6.45
2022-09-21T06:13:05.970Z,7.45
2022-09-21T06:15:38.450Z,7.28
2022-09-21T06:18:12.157Z,7.82
2022-09-21T06:20:41.102Z,7.22
2022-09-21T06:23:10.501Z,9.15
2022-09-21T06:25:38.057Z,10.07
2022-09-21T06:28:11.625Z,9.57
2022-09-21T06:30:40.908Z,10.20
2022-09-21T06:33:09.158Z,9.77
2022-09-21T06:35:37.312Z,9.63
2022-09-21T06:38:07.325Z,9.90
2022-09-21T06:40:37.168Z,10.70
2022-09-21T06:43:05.460Z,9.48
2022-09-21T06:45:32.842Z,8.48
2022-09-21T06:47:59.747Z,8.00
2022-09-21T06:50:26.950Z,7.00
2022-09-21T06:52:53.768Z,6.28
2022-09-21T06:55:20.970Z,7.63
2022-09-21T06:57:48.032Z,7.18
2022-09-21T07:00:15.442Z,7.20
2022-09-21T07:02:45.835Z,7.70
2022-09-21T07:05:13.308Z,8.25
2022-09-21T07:07:40.576Z,8.13
2022-09-21T07:10:13.313Z,8.07
2022-09-21T07:12:42.174Z,8.38
2022-09-21T07:15:10.443Z,8.43
2022-09-21T07:17:39.103Z,7.88
2022-09-21T07:20:08.152Z,8.10
2022-09-21T07:22:35.753Z,7.63
2022-09-21T07:25:03.849Z,8.27
2022-09-21T07:27:32.106Z,8.65
2022-09-21T07:29:59.046Z,8.38
2022-09-21T07:32:26.299Z,8.45
2022-09-21T07:34:56.443Z,7.78
2022-09-21T07:37:25.060Z,7.78
2022-09-21T07:39:53.143Z,8.40
2022-09-21T07:42:23.060Z,8.15
2022-09-21T07:44:50.934Z,8.10
2022-09-21T07:47:17.946Z,8.07
2022-09-21T07:49:47.189Z,9.13
2022-09-21T07:52:15.503Z,8.95
2022-09-21T07:54:42.573Z,9.90
2022-09-21T07:57:28.037Z,10.73
2022-09-21T07:59:58.327Z,11.18
2022-09-21T08:02:25.547Z,11.20
2022-09-21T08:04:53.628Z,11.07
2022-09-21T08:07:20.364Z,11.30
2022-09-21T08:09:49.447Z,11.48
2022-09-21T08:12:18.781Z,9.95
2022-09-21T08:14:45.852Z,8.85
2022-09-21T08:17:12.753Z,9.48
2022-09-21T08:19:39.853Z,9.20
2022-09-21T08:22:06.928Z,8.20
2022-09-21T08:24:35.231Z,7.57
2022-09-21T08:27:02.418Z,6.40
2022-09-21T08:29:30.376Z,6.22
2022-09-21T08:31:58.193Z,6.53
2022-09-21T08:34:26.396Z,6.65
2022-09-21T08:36:55.760Z,5.00
2022-09-21T08:39:23.988Z,4.97
2022-09-21T08:42:09.220Z,5.07
2022-09-21T08:44:41.545Z,5.60
2022-09-21T08:47:44.051Z,4.70
2022-09-21T08:50:34.213Z,5.75
2022-09-21T08:53:06.270Z,5.30
2022-09-21T08:55:33.277Z,5.63
2022-09-21T08:58:01.365Z,4.85
2022-09-21T09:00:34.580Z,4.72
2022-09-21T09:03:04.104Z,4.20
2022-09-21T09:06:00.308Z,4.45
2022-09-21T09:08:55.830Z,4.82
2022-09-21T09:11:53.910Z,4.40
2022-09-21T09:14:36.965Z,4.13
2022-09-21T09:17:41.458Z,3.20
2022-09-21T09:20:43.424Z,3.78
2022-09-21T09:23:22.022Z,3.50
2022-09-21T09:25:52.930Z,4.22
2022-09-21T09:28:35.085Z,3.72
2022-09-21T09:31:26.026Z,3.60
2022-09-21T09:33:59.584Z,3.40
2022-09-21T09:36:56.952Z,3.40
2022-09-21T09:39:20.245Z,3.22
2022-09-21T09:42:01.283Z,3.72
2022-09-21T09:44:33.702Z,4.03
2022-09-21T09:47:30.472Z,3.55
2022-09-21T09:50:00.136Z,3.40
2022-09-21T09:52:27.840Z,3.42
2022-09-21T09:54:54.854Z,2.30
2022-09-21T09:57:29.471Z,2.13
2022-09-21T10:00:12.386Z,2.50
2022-09-21T10:02:54.016Z,2.53
2022-09-21T10:05:47.081Z,2.17
2022-09-21T10:08:53.204Z,1.55
2022-09-21T10:11:20.370Z,1.25
2022-09-21T10:13:49.270Z,1.10
2022-09-21T10:16:22.135Z,1.05
2022-09-21T10:18:56.271Z,1.70
2022-09-21T10:21:33.299Z,1.65
2022-09-21T10:24:14.889Z,1.27
2022-09-21T10:26:57.886Z,1.38
2022-09-21T10:29:25.413Z,1.65
2022-09-21T10:31:57.263Z,1.30
2022-09-21T10:34:25.521Z,1.10
2022-09-21T10:36:56.204Z,1.50
2022-09-21T10:39:26.973Z,1.58
2022-09-21T10:41:59.416Z,1.70
2022-09-21T10:44:39.397Z,1.55
2022-09-21T10:47:28.230Z,1.25
2022-09-21T10:49:57.477Z,2.08
2022-09-21T10:52:33.195Z,1.75
2022-09-21T10:55:00.323Z,1.50
2022-09-21T10:57:29.744Z,1.10
2022-09-21T10:59:57.383Z,1.25
2022-09-21T11:02:27.156Z,1.73
2022-09-21T11:05:02.279Z,1.45
2022-09-21T11:07:37.975Z,1.95
2022-09-21T11:10:23.490Z,2.70
2022-09-21T11:13:09.152Z,2.30
2022-09-21T11:15:58.918Z,1.70
2022-09-21T11:19:10.769Z,1.50
2022-09-21T11:22:10.695Z,1.30
2022-09-21T11:25:04.917Z,1.60
2022-09-21T11:27:41.703Z,1.45
2022-09-21T11:30:12.992Z,1.88
2022-09-21T11:33:13.483Z,2.17
2022-09-21T11:35:43.191Z,1.95
2022-09-21T11:38:18.834Z,1.55
2022-09-21T11:41:10.023Z,1.67
2022-09-21T11:44:02.184Z,1.70
2022-09-21T11:46:41.230Z,1.30
2022-09-21T11:49:45.704Z,1.00
2022-09-21T11:52:32.385Z,1.08
2022-09-21T11:55:18.316Z,1.10
2022-09-21T11:58:01.614Z,1.08
2022-09-21T12:00:40.025Z,1.08
2022-09-21T12:03:50.797Z,1.13
2022-09-21T12:06:43.685Z,0.93
2022-09-21T12:09:48.486Z,1.00
2022-09-21T12:12:40.376Z,0.90
2022-09-21T12:15:11.780Z,1.10
2022-09-21T12:17:53.136Z,1.10
2022-09-21T12:20:24.371Z,1.10
2022-09-21T12:22:57.928Z,0.90
2022-09-21T12:25:36.055Z,1.10
2022-09-21T12:28:13.678Z,1.25
2022-09-21T12:30:46.086Z,1.35
2022-09-21T12:33:18.199Z,1.05
2022-09-21T12:36:10.435Z,1.20
2022-09-21T12:38:58.530Z,0.85
2022-09-21T12:41:54.114Z,1.10
2022-09-21T12:44:53.134Z,1.20
2022-09-21T12:47:46.572Z,1.20
2022-09-21T12:50:25.293Z,1.40
2022-09-21T12:52:54.131Z,1.45
2022-09-21T12:55:23.766Z,1.45
2022-09-21T12:58:18.544Z,1.35
2022-09-21T13:01:11.529Z,1.23
2022-09-21T13:03:53.399Z,1.17
2022-09-21T13:06:58.871Z,1.15
2022-09-21T13:09:27.028Z,0.90
2022-09-21T13:12:06.673Z,1.20
2022-09-21T13:14:36.511Z,1.58
2022-09-21T13:17:06.028Z,0.80
2022-09-21T13:19:36.384Z,0.93
2022-09-21T13:22:23.707Z,1.30
2022-09-21T13:25:06.697Z,1.10
2022-09-21T13:28:00.556Z,1.00
2022-09-21T13:30:48.060Z,1.23
2022-09-21T13:33:20.973Z,1.02
2022-09-21T13:35:50.928Z,0.98
2022-09-21T13:38:29.438Z,1.23
2022-09-21T13:41:02.213Z,1.00
2022-09-21T13:43:59.758Z,1.60
2022-09-21T13:46:35.254Z,0.80
2022-09-21T13:49:05.230Z,1.33
2022-09-21T13:51:35.580Z,1.00
2022-09-21T13:54:04.753Z,1.52
2022-09-21T13:56:33.569Z,1.05
2022-09-21T13:59:01.092Z,1.00
2022-09-21T14:01:50.011Z,1.27
2022-09-21T14:04:31.368Z,1.25
2022-09-21T14:07:02.828Z,1.10
2022-09-21T14:09:35.091Z,1.20
2022-09-21T14:12:06.524Z,0.98
2022-09-21T14:14:38.621Z,0.90
2022-09-21T14:17:26.414Z,0.75
2022-09-21T14:19:53.553Z,0.90
2022-09-21T14:22:20.635Z,0.98
2022-09-21T14:24:51.271Z,0.80
2022-09-21T14:27:34.685Z,1.17
2022-09-21T14:30:33.484Z,1.17
2022-09-21T14:33:00.872Z,1.10
2022-09-21T14:35:34.383Z,0.98
2022-09-21T14:38:08.042Z,0.95
2022-09-21T14:40:39.186Z,1.10
2022-09-21T14:43:15.674Z,0.80
2022-09-21T14:45:50.545Z,1.42
2022-09-21T14:48:23.281Z,1.02
2022-09-21T14:50:57.895Z,1.10
2022-09-21T14:53:28.277Z,1.10
2022-09-21T14:56:04.141Z,1.00
2022-09-21T14:58:46.849Z,1.02
2022-09-21T15:01:38.123Z,0.80
2022-09-21T15:04:17.565Z,0.80
2022-09-21T15:07:21.005Z,1.00
2022-09-21T15:10:26.080Z,1.10
2022-09-21T15:12:58.942Z,1.00
2022-09-21T15:15:51.942Z,1.70
2022-09-21T15:18:22.244Z,1.13
2022-09-21T15:21:04.266Z,1.00
2022-09-21T15:23:41.026Z,1.20
2022-09-21T15:26:13.597Z,0.98
2022-09-21T15:29:13.987Z,1.02
2022-09-21T15:31:42.198Z,1.13
2022-09-21T15:34:13.507Z,1.17
2022-09-21T15:36:42.751Z,1.00
2022-09-21T15:39:25.348Z,1.00
2022-09-21T15:42:10.563Z,1.20
2022-09-21T15:44:39.490Z,1.75
2022-09-21T15:47:13.291Z,1.30
2022-09-21T15:49:41.903Z,1.48
2022-09-21T15:52:44.315Z,1.13
2022-09-21T15:55:22.180Z,1.17
2022-09-21T15:57:56.394Z,1.00
2022-09-21T16:00:32.751Z,1.10
2022-09-21T16:03:06.337Z,1.95
2022-09-21T16:05:54.508Z,1.48
2022-09-21T16:08:35.227Z,1.40
2022-09-21T16:11:32.371Z,1.40
2022-09-21T16:14:29.843Z,1.13
2022-09-21T16:17:18.161Z,1.30
2022-09-21T16:20:14.729Z,1.48
2022-09-21T16:22:44.454Z,1.23
2022-09-21T16:25:20.566Z,1.10
2022-09-21T16:28:03.556Z,1.15
2022-09-21T16:30:40.806Z,1.33
2022-09-21T16:33:44.256Z,1.17
2022-09-21T16:36:20.108Z,1.58
2022-09-21T16:38:47.354Z,1.42
2022-09-21T16:41:14.785Z,1.73
2022-09-21T16:43:46.628Z,1.90
2022-09-21T16:46:13.983Z,1.35
2022-09-21T16:48:40.903Z,1.38
2022-09-21T16:51:13.588Z,1.95
2022-09-21T16:53:40.822Z,1.50
2022-09-21T16:56:15.336Z,1.60
2022-09-21T16:58:45.431Z,1.70
2022-09-21T17:01:15.502Z,1.63
2022-09-21T17:03:43.108Z,2.00
2022-09-21T17:06:21.878Z,1.48
2022-09-21T17:08:50.006Z,1.58
2022-09-21T17:11:20.059Z,1.80
2022-09-21T17:13:48.123Z,1.75
2022-09-21T17:16:18.105Z,2.72
2022-09-21T17:18:46.471Z,2.15
2022-09-21T17:21:13.718Z,2.20
2022-09-21T17:23:42.057Z,2.45
2022-09-21T17:26:21.081Z,1.77
2022-09-21T17:28:48.083Z,1.95
2022-09-21T17:31:16.661Z,1.75
2022-09-21T17:33:44.092Z,1.60
2022-09-21T17:36:15.188Z,1.73
2022-09-21T17:38:43.058Z,1.45
2022-09-21T17:41:43.468Z,1.85
2022-09-21T17:44:17.291Z,2.20
2022-09-21T17:46:58.225Z,1.73
2022-09-21T17:49:25.860Z,1.90
2022-09-21T17:52:11.399Z,1.83
2022-09-21T17:54:39.988Z,9.00
2022-09-21T17:57:25.569Z,7.50
2022-09-21T18:00:04.749Z,8.32
2022-09-21T18:02:31.753Z,5.85
2022-09-21T18:05:04.525Z,3.33
2022-09-21T18:07:31.731Z,2.72
2022-09-21T18:09:58.765Z,2.58
2022-09-21T18:12:48.564Z,2.33
2022-09-21T18:15:28.704Z,2.03
2022-09-21T18:18:12.792Z,2.20
2022-09-21T18:20:57.074Z,2.25
2022-09-21T18:23:43.967Z,2.83
2022-09-21T18:26:16.466Z,2.20
2022-09-21T18:28:57.086Z,2.13
2022-09-21T18:31:42.342Z,2.60
2022-09-21T18:34:34.752Z,3.47
2022-09-21T18:37:20.371Z,3.28
2022-09-21T18:40:09.163Z,3.70
2022-09-21T18:42:55.880Z,3.60
2022-09-21T18:45:28.373Z,3.38
2022-09-21T18:48:01.843Z,3.83
2022-09-21T18:50:41.666Z,3.47
2022-09-21T18:53:21.581Z,4.13
2022-09-21T18:55:49.122Z,4.20
2022-09-21T18:58:16.593Z,4.18
2022-09-21T19:00:43.945Z,4.68
2022-09-21T19:03:18.019Z,4.35
2022-09-21T19:05:56.823Z,5.10
2022-09-21T19:08:35.200Z,4.53
2022-09-21T19:11:14.494Z,4.55
2022-09-21T19:13:41.337Z,4.93
2022-09-21T19:16:16.710Z,4.82
2022-09-21T19:18:43.889Z,4.60
2022-09-21T19:21:29.398Z,5.05
2022-09-21T19:24:05.416Z,4.70
2022-09-21T19:26:45.095Z,4.50
2022-09-21T19:29:38.300Z,4.35
2022-09-21T19:32:31.651Z,4.32
2022-09-21T19:35:11.627Z,4.55
2022-09-21T19:37:39.509Z,4.95
2022-09-21T19:40:07.462Z,4.30
2022-09-21T19:42:44.170Z,4.85
2022-09-21T19:45:11.159Z,4.65
2022-09-21T19:47:50.790Z,4.90
2022-09-21T19:50:24.027Z,5.10
2022-09-21T19:53:12.799Z,4.95
2022-09-21T19:56:00.018Z,5.65
2022-09-21T19:58:45.752Z,5.50
2022-09-21T20:01:16.939Z,5.13
2022-09-21T20:03:46.924Z,5.15
2022-09-21T20:06:22.031Z,5.38
2022-09-21T20:09:12.645Z,4.70
2022-09-21T20:11:58.544Z,5.35
2022-09-21T20:14:43.946Z,5.25
2022-09-21T20:17:18.564Z,4.88
2022-09-21T20:20:35.082Z,5.10
2022-09-21T20:23:02.360Z,5.25
2022-09-21T20:25:41.410Z,5.55
2022-09-21T20:28:09.206Z,4.55
2022-09-21T20:30:38.454Z,4.78
2022-09-21T20:33:14.418Z,5.43
2022-09-21T20:35:42.850Z,4.72
2022-09-21T20:38:10.649Z,5.72
2022-09-21T20:40:39.929Z,5.97
2022-09-21T20:43:07.962Z,5.28
2022-09-21T20:45:35.816Z,5.63
2022-09-21T20:48:13.389Z,5.65
2022-09-21T20:50:41.850Z,5.90
2022-09-21T20:53:09.588Z,5.53
2022-09-21T20:55:37.064Z,5.45
2022-09-21T20:58:04.508Z,5.35
2022-09-21T21:00:31.955Z,5.25
2022-09-21T21:02:59.724Z,6.13
2022-09-21T21:05:28.977Z,5.38
2022-09-21T21:07:57.238Z,5.60
2022-09-21T21:10:24.530Z,5.75
2022-09-21T21:12:51.700Z,5.50
2022-09-21T21:15:18.747Z,5.40
2022-09-21T21:17:48.786Z,5.75
2022-09-21T21:20:16.699Z,5.93
2022-09-21T21:22:44.948Z,5.75
2022-09-21T21:25:12.048Z,5.68
2022-09-21T21:27:40.085Z,5.43
2022-09-21T21:30:08.816Z,5.78
2022-09-21T21:32:36.276Z,6.10
2022-09-21T21:35:03.846Z,6.45
2022-09-21T21:37:31.102Z,6.15
2022-09-21T21:39:58.575Z,5.78
2022-09-21T21:42:25.703Z,6.13
2022-09-21T21:44:52.733Z,6.18
2022-09-21T21:47:39.898Z,5.50
2022-09-21T21:50:06.921Z,6.18
2022-09-21T21:52:33.739Z,5.50
2022-09-21T21:55:00.721Z,5.93
2022-09-21T21:57:27.803Z,5.82
2022-09-21T21:59:54.732Z,5.15
2022-09-21T22:02:21.568Z,5.32
2022-09-21T22:04:48.385Z,5.93
2022-09-21T22:07:15.203Z,5.60
2022-09-21T22:09:42.263Z,5.65
2022-09-21T22:12:09.978Z,6.30
2022-09-21T22:14:36.836Z,5.88
2022-09-21T22:17:03.640Z,5.82
2022-09-21T22:19:30.615Z,5.28
2022-09-21T22:21:57.696Z,5.20
2022-09-21T22:24:24.432Z,5.15
2022-09-21T22:26:51.695Z,5.30
2022-09-21T22:29:19.118Z,5.32
2022-09-21T22:31:49.671Z,5.22
2022-09-21T22:34:17.392Z,5.20
2022-09-21T22:36:44.750Z,5.60
2022-09-21T22:39:12.724Z,5.30
2022-09-21T22:41:42.181Z,5.32
2022-09-21T22:44:10.443Z,5.72
2022-09-21T22:46:37.940Z,5.90
2022-09-21T22:49:04.945Z,5.53
2022-09-21T22:51:32.335Z,6.20
2022-09-21T22:53:59.230Z,5.88
2022-09-21T22:56:28.939Z,5.97
2022-09-21T22:58:58.307Z,6.57
2022-09-21T23:01:26.640Z,6.07
2022-09-21T23:03:56.419Z,6.57
2022-09-21T23:06:26.718Z,5.78
2022-09-21T23:08:55.223Z,5.68
2022-09-21T23:11:34.433Z,6.00
2022-09-21T23:14:01.757Z,6.22
2022-09-21T23:16:29.912Z,6.43
2022-09-21T23:18:57.952Z,6.43
2022-09-21T23:21:29.922Z,6.75
2022-09-21T23:24:01.892Z,7.10
2022-09-21T23:26:32.125Z,7.15
2022-09-21T23:29:02.771Z,7.40
2022-09-21T23:31:31.617Z,6.45
2022-09-21T23:34:04.093Z,7.25
2022-09-21T23:36:31.697Z,6.38
2022-09-21T23:38:59.315Z,6.43
2022-09-21T23:41:32.952Z,6.82
2022-09-21T23:44:00.274Z,6.53
2022-09-21T23:46:29.778Z,6.72
2022-09-21T23:48:57.559Z,6.78
2022-09-21T23:51:24.924Z,6.88
2022-09-21T23:53:52.116Z,6.60
2022-09-21T23:56:21.202Z,7.13
2022-09-21T23:58:49.313Z,7.45
